sensor_id;sensor_type;location;lat;lon;timestamp;pressure;altitude;pressure_sealevel;temperature
67829;BMP280;54626;45.436;10.942;2023-05-10T00:01:34;100334.22;;;17.76
67829;BMP280;54626;45.436;10.942;2023-05-10T00:04:00;100328.34;;;17.82
67829;BMP280;54626;45.436;10.942;2023-05-10T00:06:27;100330.53;;;17.83
67829;BMP280;54626;45.436;10.942;2023-05-10T00:08:54;100333.63;;;17.78
67829;BMP280;54626;45.436;10.942;2023-05-10T00:11:20;100325.53;;;17.82
67829;BMP280;54626;45.436;10.942;2023-05-10T00:13:48;100332.75;;;17.75
67829;BMP280;54626;45.436;10.942;2023-05-10T00:16:15;100327.16;;;17.75
67829;BMP280;54626;45.436;10.942;2023-05-10T00:18:41;100324.66;;;17.79
67829;BMP280;54626;45.436;10.942;2023-05-10T00:21:08;100325.84;;;17.76
67829;BMP280;54626;45.436;10.942;2023-05-10T00:23:34;100316.41;;;17.72
67829;BMP280;54626;45.436;10.942;2023-05-10T00:26:01;100319.34;;;17.74
67829;BMP280;54626;45.436;10.942;2023-05-10T00:28:28;100307.59;;;17.66
67829;BMP280;54626;45.436;10.942;2023-05-10T00:30:55;100303.38;;;17.56
67829;BMP280;54626;45.436;10.942;2023-05-10T00:33:21;100309.88;;;17.49
67829;BMP280;54626;45.436;10.942;2023-05-10T00:35:48;100299.59;;;17.42
67829;BMP280;54626;45.436;10.942;2023-05-10T00:38:14;100299.44;;;17.40
67829;BMP280;54626;45.436;10.942;2023-05-10T00:40:41;100292.38;;;17.29
67829;BMP280;54626;45.436;10.942;2023-05-10T00:43:07;100295.38;;;17.22
67829;BMP280;54626;45.436;10.942;2023-05-10T00:45:35;100297.41;;;17.21
67829;BMP280;54626;45.436;10.942;2023-05-10T00:48:03;100294.63;;;17.12
67829;BMP280;54626;45.436;10.942;2023-05-10T00:50:33;100287.00;;;17.03
67829;BMP280;54626;45.436;10.942;2023-05-10T00:53:00;100290.22;;;16.90
67829;BMP280;54626;45.436;10.942;2023-05-10T00:55:27;100274.66;;;16.78
67829;BMP280;54626;45.436;10.942;2023-05-10T00:57:53;100280.81;;;16.67
67829;BMP280;54626;45.436;10.942;2023-05-10T01:00:20;100276.72;;;16.58
67829;BMP280;54626;45.436;10.942;2023-05-10T01:02:47;100281.25;;;16.54
67829;BMP280;54626;45.436;10.942;2023-05-10T01:05:14;100272.00;;;16.51
67829;BMP280;54626;45.436;10.942;2023-05-10T01:07:40;100263.44;;;16.49
67829;BMP280;54626;45.436;10.942;2023-05-10T01:10:08;100264.63;;;16.46
67829;BMP280;54626;45.436;10.942;2023-05-10T01:12:37;100270.94;;;16.47
67829;BMP280;54626;45.436;10.942;2023-05-10T01:15:05;100262.88;;;16.41
67829;BMP280;54626;45.436;10.942;2023-05-10T01:17:34;100262.88;;;16.41
67829;BMP280;54626;45.436;10.942;2023-05-10T01:20:02;100262.69;;;16.30
67829;BMP280;54626;45.436;10.942;2023-05-10T01:29:01;100268.56;;;16.25
67829;BMP280;54626;45.436;10.942;2023-05-10T01:35:00;100269.59;;;16.29
67829;BMP280;54626;45.436;10.942;2023-05-10T01:37:59;100256.03;;;16.16
67829;BMP280;54626;45.436;10.942;2023-05-10T01:43:07;100252.41;;;16.14
67829;BMP280;54626;45.436;10.942;2023-05-10T01:45:41;100263.09;;;16.08
67829;BMP280;54626;45.436;10.942;2023-05-10T01:48:14;100253.50;;;16.01
67829;BMP280;54626;45.436;10.942;2023-05-10T01:50:43;100255.56;;;16.01
67829;BMP280;54626;45.436;10.942;2023-05-10T01:53:13;100256.03;;;16.07
67829;BMP280;54626;45.436;10.942;2023-05-10T01:55:49;100261.41;;;15.95
67829;BMP280;54626;45.436;10.942;2023-05-10T01:58:25;100258.63;;;15.95
67829;BMP280;54626;45.436;10.942;2023-05-10T02:01:00;100263.19;;;16.00
67829;BMP280;54626;45.436;10.942;2023-05-10T02:03:28;100257.00;;;15.92
67829;BMP280;54626;45.436;10.942;2023-05-10T02:05:55;100265.97;;;15.91
67829;BMP280;54626;45.436;10.942;2023-05-10T02:08:23;100268.47;;;15.96
67829;BMP280;54626;45.436;10.942;2023-05-10T02:10:54;100271.25;;;15.96
67829;BMP280;54626;45.436;10.942;2023-05-10T02:13:25;100273.31;;;15.96
67829;BMP280;54626;45.436;10.942;2023-05-10T02:15:53;100275.50;;;15.88
67829;BMP280;54626;45.436;10.942;2023-05-10T02:18:23;100279.00;;;15.88
67829;BMP280;54626;45.436;10.942;2023-05-10T02:20:53;100277.22;;;15.83
67829;BMP280;54626;45.436;10.942;2023-05-10T02:23:21;100274.41;;;15.74
67829;BMP280;54626;45.436;10.942;2023-05-10T02:25:51;100274.41;;;15.74
67829;BMP280;54626;45.436;10.942;2023-05-10T02:28:19;100274.81;;;15.70
67829;BMP280;54626;45.436;10.942;2023-05-10T02:30:47;100278.31;;;15.62
67829;BMP280;54626;45.436;10.942;2023-05-10T02:33:14;100279.13;;;15.55
67829;BMP280;54626;45.436;10.942;2023-05-10T02:35:40;100272.88;;;15.37
67829;BMP280;54626;45.436;10.942;2023-05-10T02:38:08;100278.19;;;15.43
67829;BMP280;54626;45.436;10.942;2023-05-10T02:40:36;100280.78;;;15.41
67829;BMP280;54626;45.436;10.942;2023-05-10T02:43:06;100281.41;;;15.39
67829;BMP280;54626;45.436;10.942;2023-05-10T02:45:36;100272.25;;;15.29
67829;BMP280;54626;45.436;10.942;2023-05-10T02:48:08;100272.81;;;15.28
67829;BMP280;54626;45.436;10.942;2023-05-10T02:50:37;100275.41;;;15.26
67829;BMP280;54626;45.436;10.942;2023-05-10T02:53:10;100280.25;;;15.25
67829;BMP280;54626;45.436;10.942;2023-05-10T02:55:42;100277.31;;;15.23
67829;BMP280;54626;45.436;10.942;2023-05-10T02:58:13;100280.38;;;15.18
67829;BMP280;54626;45.436;10.942;2023-05-10T03:00:40;100270.84;;;15.21
67829;BMP280;54626;45.436;10.942;2023-05-10T03:03:09;100272.25;;;15.12
67829;BMP280;54626;45.436;10.942;2023-05-10T03:05:37;100269.97;;;15.01
67829;BMP280;54626;45.436;10.942;2023-05-10T03:08:03;100269.56;;;15.05
67829;BMP280;54626;45.436;10.942;2023-05-10T03:10:32;100265.38;;;14.97
67829;BMP280;54626;45.436;10.942;2023-05-10T03:13:28;100270.88;;;14.87
67829;BMP280;54626;45.436;10.942;2023-05-10T03:16:06;100266.59;;;14.86
67829;BMP280;54626;45.436;10.942;2023-05-10T03:18:44;100268.91;;;14.80
67829;BMP280;54626;45.436;10.942;2023-05-10T03:21:11;100262.59;;;14.80
67829;BMP280;54626;45.436;10.942;2023-05-10T03:23:49;100267.81;;;14.76
67829;BMP280;54626;45.436;10.942;2023-05-10T03:26:29;100263.00;;;14.76
67829;BMP280;54626;45.436;10.942;2023-05-10T03:28:57;100259.81;;;14.80
67829;BMP280;54626;45.436;10.942;2023-05-10T03:31:25;100263.25;;;14.71
67829;BMP280;54626;45.436;10.942;2023-05-10T03:33:52;100261.44;;;14.66
67829;BMP280;54626;45.436;10.942;2023-05-10T03:36:21;100251.47;;;14.63
67829;BMP280;54626;45.436;10.942;2023-05-10T03:39:08;100250.97;;;14.57
67829;BMP280;54626;45.436;10.942;2023-05-10T03:41:55;100252.44;;;14.58
67829;BMP280;54626;45.436;10.942;2023-05-10T03:44:28;100254.06;;;14.61
67829;BMP280;54626;45.436;10.942;2023-05-10T03:47:02;100246.00;;;14.55
67829;BMP280;54626;45.436;10.942;2023-05-10T03:49:30;100248.69;;;14.63
67829;BMP280;54626;45.436;10.942;2023-05-10T03:52:05;100248.28;;;14.66
67829;BMP280;54626;45.436;10.942;2023-05-10T03:54:32;100248.19;;;14.57
67829;BMP280;54626;45.436;10.942;2023-05-10T03:56:59;100247.63;;;14.58
67829;BMP280;54626;45.436;10.942;2023-05-10T03:59:49;100251.38;;;14.53
67829;BMP280;54626;45.436;10.942;2023-05-10T04:02:19;100248.44;;;14.51
67829;BMP280;54626;45.436;10.942;2023-05-10T04:04:58;100255.47;;;14.52
67829;BMP280;54626;45.436;10.942;2023-05-10T04:07:27;100251.78;;;14.50
67829;BMP280;54626;45.436;10.942;2023-05-10T04:09:57;100250.31;;;14.49
67829;BMP280;54626;45.436;10.942;2023-05-10T04:12:34;100246.97;;;14.50
67829;BMP280;54626;45.436;10.942;2023-05-10T04:15:00;100239.44;;;14.43
67829;BMP280;54626;45.436;10.942;2023-05-10T04:17:29;100242.13;;;14.51
67829;BMP280;54626;45.436;10.942;2023-05-10T04:20:01;100235.72;;;14.41
67829;BMP280;54626;45.436;10.942;2023-05-10T04:22:30;100242.72;;;14.49
67829;BMP280;54626;45.436;10.942;2023-05-10T04:24:59;100242.38;;;14.45
67829;BMP280;54626;45.436;10.942;2023-05-10T04:27:35;100236.81;;;14.45
67829;BMP280;54626;45.436;10.942;2023-05-10T04:30:02;100244.06;;;14.41
67829;BMP280;54626;45.436;10.942;2023-05-10T04:32:31;100236.97;;;14.47
67829;BMP280;54626;45.436;10.942;2023-05-10T04:34:59;100250.31;;;14.49
67829;BMP280;54626;45.436;10.942;2023-05-10T04:37:29;100247.69;;;14.51
67829;BMP280;54626;45.436;10.942;2023-05-10T04:39:56;100250.97;;;14.57
67829;BMP280;54626;45.436;10.942;2023-05-10T04:42:32;100249.63;;;14.58
67829;BMP280;54626;45.436;10.942;2023-05-10T04:45:02;100250.00;;;14.62
67829;BMP280;54626;45.436;10.942;2023-05-10T04:47:31;100259.59;;;14.68
67829;BMP280;54626;45.436;10.942;2023-05-10T04:50:18;100256.81;;;14.68
67829;BMP280;54626;45.436;10.942;2023-05-10T04:52:49;100253.09;;;14.66
67829;BMP280;54626;45.436;10.942;2023-05-10T04:55:19;100258.75;;;14.58
67829;BMP280;54626;45.436;10.942;2023-05-10T04:57:52;100255.06;;;14.56
67829;BMP280;54626;45.436;10.942;2023-05-10T05:00:23;100267.09;;;14.58
67829;BMP280;54626;45.436;10.942;2023-05-10T05:02:50;100256.69;;;14.59
67829;BMP280;54626;45.436;10.942;2023-05-10T05:05:21;100258.75;;;14.58
67829;BMP280;54626;45.436;10.942;2023-05-10T05:07:51;100252.59;;;14.60
67829;BMP280;54626;45.436;10.942;2023-05-10T05:10:19;100255.22;;;14.58
67829;BMP280;54626;45.436;10.942;2023-05-10T05:12:50;100259.94;;;14.48
67829;BMP280;54626;45.436;10.942;2023-05-10T05:15:18;100264.00;;;14.54
67829;BMP280;54626;45.436;10.942;2023-05-10T05:17:44;100256.19;;;14.53
67829;BMP280;54626;45.436;10.942;2023-05-10T05:20:15;100257.03;;;14.46
67829;BMP280;54626;45.436;10.942;2023-05-10T05:22:44;100253.97;;;14.34
67829;BMP280;54626;45.436;10.942;2023-05-10T05:25:12;100256.66;;;14.42
67829;BMP280;54626;45.436;10.942;2023-05-10T05:27:43;100254.81;;;14.44
67829;BMP280;54626;45.436;10.942;2023-05-10T05:30:13;100271.56;;;14.37
67829;BMP280;54626;45.436;10.942;2023-05-10T05:32:44;100257.81;;;14.39
67829;BMP280;54626;45.436;10.942;2023-05-10T05:35:14;100261.09;;;14.45
67829;BMP280;54626;45.436;10.942;2023-05-10T05:37:44;100259.81;;;14.46
67829;BMP280;54626;45.436;10.942;2023-05-10T05:40:23;100254.69;;;14.35
67829;BMP280;54626;45.436;10.942;2023-05-10T05:42:51;100250.72;;;14.45
67829;BMP280;54626;45.436;10.942;2023-05-10T05:45:17;100252.75;;;14.45
67829;BMP280;54626;45.436;10.942;2023-05-10T05:47:48;100250.44;;;14.34
67829;BMP280;54626;45.436;10.942;2023-05-10T05:50:19;100251.84;;;14.42
67829;BMP280;54626;45.436;10.942;2023-05-10T05:52:49;100251.72;;;14.40
67829;BMP280;54626;45.436;10.942;2023-05-10T05:55:18;100256.28;;;14.45
67829;BMP280;54626;45.436;10.942;2023-05-10T05:57:45;100244.06;;;14.41
67829;BMP280;54626;45.436;10.942;2023-05-10T06:00:12;100252.59;;;14.43
67829;BMP280;54626;45.436;10.942;2023-05-10T06:02:52;100257.97;;;14.41
67829;BMP280;54626;45.436;10.942;2023-05-10T06:05:28;100263.00;;;14.42
67829;BMP280;54626;45.436;10.942;2023-05-10T06:07:59;100263.38;;;14.39
67829;BMP280;54626;45.436;10.942;2023-05-10T06:10:28;100268.16;;;14.46
67829;BMP280;54626;45.436;10.942;2023-05-10T06:13:05;100260.38;;;14.44
67829;BMP280;54626;45.436;10.942;2023-05-10T06:15:39;100271.72;;;14.39
67829;BMP280;54626;45.436;10.942;2023-05-10T06:18:16;100262.88;;;14.33
67829;BMP280;54626;45.436;10.942;2023-05-10T06:20:47;100256.81;;;14.27
67829;BMP280;54626;45.436;10.942;2023-05-10T06:23:22;100267.94;;;14.27
67829;BMP280;54626;45.436;10.942;2023-05-10T06:25:53;100266.72;;;14.21
67829;BMP280;54626;45.436;10.942;2023-05-10T06:28:20;100252.63;;;14.19
67829;BMP280;54626;45.436;10.942;2023-05-10T06:30:52;100263.16;;;14.20
67829;BMP280;54626;45.436;10.942;2023-05-10T06:33:23;100268.22;;;14.14
67829;BMP280;54626;45.436;10.942;2023-05-10T06:35:53;100257.28;;;14.16
67829;BMP280;54626;45.436;10.942;2023-05-10T06:38:28;100270.28;;;14.14
67829;BMP280;54626;45.436;10.942;2023-05-10T06:41:08;100258.25;;;14.11
67829;BMP280;54626;45.436;10.942;2023-05-10T06:43:37;100260.66;;;14.07
67829;BMP280;54626;45.436;10.942;2023-05-10T06:46:18;100266.81;;;14.06
67829;BMP280;54626;45.436;10.942;2023-05-10T06:49:05;100267.91;;;14.10
67829;BMP280;54626;45.436;10.942;2023-05-10T06:51:39;100269.91;;;13.93
67829;BMP280;54626;45.436;10.942;2023-05-10T06:54:10;100271.81;;;14.07
67829;BMP280;54626;45.436;10.942;2023-05-10T06:56:41;100270.81;;;14.12
67829;BMP280;54626;45.436;10.942;2023-05-10T06:59:10;100270.50;;;14.08
67829;BMP280;54626;45.436;10.942;2023-05-10T07:01:40;100274.88;;;14.19
67829;BMP280;54626;45.436;10.942;2023-05-10T07:04:14;100268.91;;;14.22
67829;BMP280;54626;45.436;10.942;2023-05-10T07:06:47;100274.81;;;14.26
67829;BMP280;54626;45.436;10.942;2023-05-10T07:09:22;100269.94;;;14.34
67829;BMP280;54626;45.436;10.942;2023-05-10T07:12:00;100274.75;;;14.33
67829;BMP280;54626;45.436;10.942;2023-05-10T07:14:28;100281.19;;;14.36
67829;BMP280;54626;45.436;10.942;2023-05-10T07:16:56;100277.38;;;14.32
67829;BMP280;54626;45.436;10.942;2023-05-10T07:19:25;100289.03;;;14.30
67829;BMP280;54626;45.436;10.942;2023-05-10T07:22:03;100280.03;;;14.22
67829;BMP280;54626;45.436;10.942;2023-05-10T07:24:30;100277.91;;;14.30
67829;BMP280;54626;45.436;10.942;2023-05-10T07:27:19;100280.16;;;14.32
67829;BMP280;54626;45.436;10.942;2023-05-10T07:29:50;100283.59;;;14.15
67829;BMP280;54626;45.436;10.942;2023-05-10T07:32:22;100286.63;;;14.10
67829;BMP280;54626;45.436;10.942;2023-05-10T07:34:53;100282.78;;;14.05
67829;BMP280;54626;45.436;10.942;2023-05-10T07:37:20;100284.84;;;13.97
67829;BMP280;54626;45.436;10.942;2023-05-10T07:39:46;100286.78;;;13.87
67829;BMP280;54626;45.436;10.942;2023-05-10T07:42:22;100290.41;;;13.97
67829;BMP280;54626;45.436;10.942;2023-05-10T07:44:51;100296.94;;;13.92
67829;BMP280;54626;45.436;10.942;2023-05-10T07:47:17;100298.94;;;13.99
67829;BMP280;54626;45.436;10.942;2023-05-10T07:49:45;100306.72;;;14.01
67829;BMP280;54626;45.436;10.942;2023-05-10T07:52:14;100303.16;;;14.00
67829;BMP280;54626;45.436;10.942;2023-05-10T07:54:47;100303.34;;;14.02
67829;BMP280;54626;45.436;10.942;2023-05-10T07:57:24;100302.09;;;13.96
67829;BMP280;54626;45.436;10.942;2023-05-10T07:59:53;100309.09;;;14.04
67829;BMP280;54626;45.436;10.942;2023-05-10T08:02:22;100312.97;;;14.09
67829;BMP280;54626;45.436;10.942;2023-05-10T08:04:52;100313.34;;;14.05
67829;BMP280;54626;45.436;10.942;2023-05-10T08:07:26;100317.94;;;14.10
67829;BMP280;54626;45.436;10.942;2023-05-10T08:09:54;100319.84;;;14.00
67829;BMP280;54626;45.436;10.942;2023-05-10T08:12:25;100322.09;;;14.02
67829;BMP280;54626;45.436;10.942;2023-05-10T08:14:56;100322.88;;;13.95
67829;BMP280;54626;45.436;10.942;2023-05-10T08:17:23;100319.19;;;13.92
67829;BMP280;54626;45.436;10.942;2023-05-10T08:19:56;100327.13;;;13.96
67829;BMP280;54626;45.436;10.942;2023-05-10T08:22:23;100322.47;;;13.98
67829;BMP280;54626;45.436;10.942;2023-05-10T08:24:52;100325.31;;;13.91
67829;BMP280;54626;45.436;10.942;2023-05-10T08:27:21;100334.19;;;13.89
67829;BMP280;54626;45.436;10.942;2023-05-10T08:29:48;100323.50;;;13.86
67829;BMP280;54626;45.436;10.942;2023-05-10T08:32:23;100329.25;;;13.80
67829;BMP280;54626;45.436;10.942;2023-05-10T08:34:53;100329.41;;;13.82
67829;BMP280;54626;45.436;10.942;2023-05-10T08:37:25;100331.47;;;13.82
67829;BMP280;54626;45.436;10.942;2023-05-10T08:39:54;100331.50;;;13.74
67829;BMP280;54626;45.436;10.942;2023-05-10T08:42:22;100327.81;;;13.72
67829;BMP280;54626;45.436;10.942;2023-05-10T08:45:00;100333.56;;;13.74
67829;BMP280;54626;45.436;10.942;2023-05-10T08:47:30;100331.66;;;13.76
67829;BMP280;54626;45.436;10.942;2023-05-10T08:50:02;100336.13;;;13.79
67829;BMP280;54626;45.436;10.942;2023-05-10T08:52:32;100332.03;;;13.80
67829;BMP280;54626;45.436;10.942;2023-05-10T08:55:09;100325.00;;;13.79
67829;BMP280;54626;45.436;10.942;2023-05-10T08:57:37;100333.53;;;13.81
67829;BMP280;54626;45.436;10.942;2023-05-10T09:00:14;100335.66;;;13.98
67829;BMP280;54626;45.436;10.942;2023-05-10T09:02:52;100338.72;;;14.09
67829;BMP280;54626;45.436;10.942;2023-05-10T09:05:21;100341.31;;;14.07
67829;BMP280;54626;45.436;10.942;2023-05-10T09:07:58;100342.78;;;14.16
67829;BMP280;54626;45.436;10.942;2023-05-10T09:10:44;100343.03;;;14.27
67829;BMP280;54626;45.436;10.942;2023-05-10T09:13:21;100343.72;;;14.35
67829;BMP280;54626;45.436;10.942;2023-05-10T09:15:51;100345.03;;;14.34
67829;BMP280;54626;45.436;10.942;2023-05-10T09:18:19;100330.28;;;14.48
67829;BMP280;54626;45.436;10.942;2023-05-10T09:20:46;100337.41;;;14.59
67829;BMP280;54626;45.436;10.942;2023-05-10T09:23:24;100332.09;;;14.70
67829;BMP280;54626;45.436;10.942;2023-05-10T09:26:05;100330.03;;;14.95
67829;BMP280;54626;45.436;10.942;2023-05-10T09:28:57;100328.78;;;15.22
67829;BMP280;54626;45.436;10.942;2023-05-10T09:31:43;100330.38;;;15.25
67829;BMP280;54626;45.436;10.942;2023-05-10T09:34:10;100334.16;;;15.20
67829;BMP280;54626;45.436;10.942;2023-05-10T09:36:52;100324.19;;;15.34
67829;BMP280;54626;45.436;10.942;2023-05-10T09:39:34;100324.25;;;15.44
67829;BMP280;54626;45.436;10.942;2023-05-10T09:42:09;100325.34;;;15.58
67829;BMP280;54626;45.436;10.942;2023-05-10T09:44:38;100329.84;;;15.70
67829;BMP280;54626;45.436;10.942;2023-05-10T09:47:09;100326.38;;;15.79
67829;BMP280;54626;45.436;10.942;2023-05-10T09:49:35;100334.78;;;15.88
67829;BMP280;54626;45.436;10.942;2023-05-10T09:52:06;100320.13;;;15.88
67829;BMP280;54626;45.436;10.942;2023-05-10T09:54:54;100322.84;;;15.78
67829;BMP280;54626;45.436;10.942;2023-05-10T09:57:29;100322.06;;;15.95
67829;BMP280;54626;45.436;10.942;2023-05-10T10:00:08;100323.53;;;15.96
67829;BMP280;54626;45.436;10.942;2023-05-10T10:02:38;100318.13;;;16.07
67829;BMP280;54626;45.436;10.942;2023-05-10T10:05:11;100315.09;;;16.13
67829;BMP280;54626;45.436;10.942;2023-05-10T10:07:41;100317.59;;;16.18
67829;BMP280;54626;45.436;10.942;2023-05-10T10:10:08;100318.00;;;16.15
67829;BMP280;54626;45.436;10.942;2023-05-10T10:12:44;100321.00;;;15.90
67829;BMP280;54626;45.436;10.942;2023-05-10T10:15:21;100314.16;;;16.10
67829;BMP280;54626;45.436;10.942;2023-05-10T10:17:53;100310.28;;;16.23
67829;BMP280;54626;45.436;10.942;2023-05-10T10:20:40;100310.56;;;16.27
67829;BMP280;54626;45.436;10.942;2023-05-10T10:23:09;100309.03;;;16.07
67829;BMP280;54626;45.436;10.942;2023-05-10T10:25:44;100315.81;;;16.13
67829;BMP280;54626;45.436;10.942;2023-05-10T10:28:36;100305.03;;;16.00
67829;BMP280;54626;45.436;10.942;2023-05-10T10:31:26;100316.56;;;16.14
67829;BMP280;54626;45.436;10.942;2023-05-10T10:34:01;100312.59;;;16.17
67829;BMP280;54626;45.436;10.942;2023-05-10T10:36:30;100308.75;;;16.03
67829;BMP280;54626;45.436;10.942;2023-05-10T10:38:58;100305.88;;;15.93
67829;BMP280;54626;45.436;10.942;2023-05-10T10:41:56;100312.84;;;16.11
67829;BMP280;54626;45.436;10.942;2023-05-10T10:44:36;100310.38;;;16.15
67829;BMP280;54626;45.436;10.942;2023-05-10T10:49:51;100309.81;;;16.17
67829;BMP280;54626;45.436;10.942;2023-05-10T10:52:31;100311.25;;;16.08
67829;BMP280;54626;45.436;10.942;2023-05-10T11:08:00;100298.72;;;16.00
67829;BMP280;54626;45.436;10.942;2023-05-10T11:10:27;100286.25;;;16.01
67829;BMP280;54626;45.436;10.942;2023-05-10T11:13:08;100284.47;;;15.96
67829;BMP280;54626;45.436;10.942;2023-05-10T11:15:40;100281.94;;;15.90
67829;BMP280;54626;45.436;10.942;2023-05-10T11:18:20;100291.22;;;15.93
67829;BMP280;54626;45.436;10.942;2023-05-10T11:23:21;100274.78;;;15.97
67829;BMP280;54626;45.436;10.942;2023-05-10T11:25:52;100275.53;;;15.97
67829;BMP280;54626;45.436;10.942;2023-05-10T11:28:26;100277.00;;;15.98
67829;BMP280;54626;45.436;10.942;2023-05-10T11:30:53;100273.94;;;16.04
67829;BMP280;54626;45.436;10.942;2023-05-10T11:33:26;100283.34;;;16.08
67829;BMP280;54626;45.436;10.942;2023-05-10T11:35:52;100277.59;;;16.06
67829;BMP280;54626;45.436;10.942;2023-05-10T11:38:21;100278.91;;;15.96
67829;BMP280;54626;45.436;10.942;2023-05-10T11:40:54;100286.19;;;16.18
67829;BMP280;54626;45.436;10.942;2023-05-10T11:43:31;100282.06;;;16.19
67829;BMP280;54626;45.436;10.942;2023-05-10T11:46:13;100285.41;;;16.17
67829;BMP280;54626;45.436;10.942;2023-05-10T11:48:42;100283.78;;;16.05
67829;BMP280;54626;45.436;10.942;2023-05-10T11:51:38;100285.53;;;16.10
67829;BMP280;54626;45.436;10.942;2023-05-10T11:54:07;100286.78;;;16.26
67829;BMP280;54626;45.436;10.942;2023-05-10T11:56:39;100285.16;;;16.23
67829;BMP280;54626;45.436;10.942;2023-05-10T11:59:06;100294.38;;;16.25
67829;BMP280;54626;45.436;10.942;2023-05-10T12:01:37;100292.50;;;16.28
67829;BMP280;54626;45.436;10.942;2023-05-10T12:04:03;100289.34;;;16.14
67829;BMP280;54626;45.436;10.942;2023-05-10T12:06:32;100305.16;;;16.29
67829;BMP280;54626;45.436;10.942;2023-05-10T12:09:19;100298.09;;;16.37
67829;BMP280;54626;45.436;10.942;2023-05-10T12:12:02;100304.72;;;16.51
67829;BMP280;54626;45.436;10.942;2023-05-10T12:14:37;100302.03;;;16.25
67829;BMP280;54626;45.436;10.942;2023-05-10T12:17:06;100297.81;;;16.33
67829;BMP280;54626;45.436;10.942;2023-05-10T12:19:41;100305.19;;;16.47
67829;BMP280;54626;45.436;10.942;2023-05-10T12:22:10;100302.38;;;16.38
67829;BMP280;54626;45.436;10.942;2023-05-10T12:24:36;100301.06;;;16.39
67829;BMP280;54626;45.436;10.942;2023-05-10T12:27:14;100305.31;;;15.95
67829;BMP280;54626;45.436;10.942;2023-05-10T12:29:41;100307.41;;;16.04
67829;BMP280;54626;45.436;10.942;2023-05-10T12:32:11;100305.63;;;15.99
67829;BMP280;54626;45.436;10.942;2023-05-10T12:34:42;100303.69;;;15.92
67829;BMP280;54626;45.436;10.942;2023-05-10T12:37:08;100302.47;;;15.85
67829;BMP280;54626;45.436;10.942;2023-05-10T12:39:45;100311.44;;;15.84
67829;BMP280;54626;45.436;10.942;2023-05-10T12:42:16;100309.16;;;15.73
67829;BMP280;54626;45.436;10.942;2023-05-10T12:44:43;100300.50;;;15.69
67829;BMP280;54626;45.436;10.942;2023-05-10T12:47:11;100301.53;;;15.73
67829;BMP280;54626;45.436;10.942;2023-05-10T12:49:39;100308.28;;;15.70
67829;BMP280;54626;45.436;10.942;2023-05-10T12:52:07;100308.56;;;15.65
67829;BMP280;54626;45.436;10.942;2023-05-10T12:54:36;100311.28;;;15.82
67829;BMP280;54626;45.436;10.942;2023-05-10T12:57:10;100306.78;;;15.96
67829;BMP280;54626;45.436;10.942;2023-05-10T12:59:38;100310.75;;;15.93
67829;BMP280;54626;45.436;10.942;2023-05-10T13:02:15;100309.59;;;16.05
67829;BMP280;54626;45.436;10.942;2023-05-10T13:04:45;100310.53;;;16.08
67829;BMP280;54626;45.436;10.942;2023-05-10T13:07:19;100307.09;;;16.00
67829;BMP280;54626;45.436;10.942;2023-05-10T13:09:47;100306.69;;;16.03
67829;BMP280;54626;45.436;10.942;2023-05-10T13:12:15;100309.28;;;16.01
67829;BMP280;54626;45.436;10.942;2023-05-10T13:14:44;100296.81;;;16.02
67829;BMP280;54626;45.436;10.942;2023-05-10T13:17:11;100303.28;;;16.05
67829;BMP280;54626;45.436;10.942;2023-05-10T13:19:59;100304.06;;;16.15
67829;BMP280;54626;45.436;10.942;2023-05-10T13:22:49;100287.59;;;16.09
67829;BMP280;54626;45.436;10.942;2023-05-10T13:25:17;100302.81;;;15.99
67829;BMP280;54626;45.436;10.942;2023-05-10T13:27:52;100292.25;;;15.97
67829;BMP280;54626;45.436;10.942;2023-05-10T13:30:21;100287.09;;;15.94
67829;BMP280;54626;45.436;10.942;2023-05-10T13:32:57;100290.66;;;16.04
67829;BMP280;54626;45.436;10.942;2023-05-10T13:35:30;100296.72;;;16.19
67829;BMP280;54626;45.436;10.942;2023-05-10T13:38:01;100284.78;;;16.00
67829;BMP280;54626;45.436;10.942;2023-05-10T13:40:35;100284.25;;;15.84
67829;BMP280;54626;45.436;10.942;2023-05-10T13:43:02;100278.63;;;16.01
67829;BMP280;54626;45.436;10.942;2023-05-10T13:45:41;100285.00;;;16.21
67829;BMP280;54626;45.436;10.942;2023-05-10T13:48:13;100282.97;;;16.31
67829;BMP280;54626;45.436;10.942;2023-05-10T13:50:47;100277.94;;;16.20
67829;BMP280;54626;45.436;10.942;2023-05-10T13:53:16;100272.31;;;16.10
67829;BMP280;54626;45.436;10.942;2023-05-10T13:55:43;100277.06;;;16.17
67829;BMP280;54626;45.436;10.942;2023-05-10T13:58:17;100276.75;;;16.13
67829;BMP280;54626;45.436;10.942;2023-05-10T14:00:47;100271.75;;;16.12
67829;BMP280;54626;45.436;10.942;2023-05-10T14:03:14;100268.50;;;16.06
67829;BMP280;54626;45.436;10.942;2023-05-10T14:05:43;100266.28;;;16.04
67829;BMP280;54626;45.436;10.942;2023-05-10T14:08:19;100259.84;;;16.11
67829;BMP280;54626;45.436;10.942;2023-05-10T14:10:49;100258.66;;;16.14
67829;BMP280;54626;45.436;10.942;2023-05-10T14:13:21;100262.94;;;16.15
67829;BMP280;54626;45.436;10.942;2023-05-10T14:15:47;100262.03;;;16.03
67829;BMP280;54626;45.436;10.942;2023-05-10T14:18:16;100249.81;;;15.99
67829;BMP280;54626;45.436;10.942;2023-05-10T14:20:50;100247.31;;;15.93
67829;BMP280;54626;45.436;10.942;2023-05-10T14:23:18;100252.31;;;15.95
67829;BMP280;54626;45.436;10.942;2023-05-10T14:25:54;100247.31;;;15.93
67829;BMP280;54626;45.436;10.942;2023-05-10T14:28:21;100253.44;;;15.82
67829;BMP280;54626;45.436;10.942;2023-05-10T14:30:57;100246.47;;;15.65
67829;BMP280;54626;45.436;10.942;2023-05-10T14:33:28;100242.41;;;15.75
67829;BMP280;54626;45.436;10.942;2023-05-10T14:35:55;100244.66;;;15.86
67829;BMP280;54626;45.436;10.942;2023-05-10T14:38:33;100240.41;;;15.94
67829;BMP280;54626;45.436;10.942;2023-05-10T14:41:02;100247.94;;;16.01